sensor_id;sensor_type;location;lat;lon;timestamp;pressure;altitude;pressure_sealevel;temperature;humidity
15634;BME280;14654;48.898;8.308;2022-12-20T00:01:06;100814.84;;;1.85;100.00
15634;BME280;14654;48.898;8.308;2022-12-20T00:03:31;100803.88;;;1.88;100.00
15634;BME280;14654;48.898;8.308;2022-12-20T00:05:57;100807.41;;;1.91;100.00
15634;BME280;14654;48.898;8.308;2022-12-20T00:08:22;100788.84;;;1.95;100.00
15634;BME280;14654;48.898;8.308;2022-12-20T00:10:48;100778.66;;;1.97;100.00
15634;BME280;14654;48.898;8.308;2022-12-20T00:13:13;100780.44;;;2.00;100.00
15634;BME280;14654;48.898;8.308;2022-12-20T00:15:38;100773.78;;;2.03;100.00
15634;BME280;14654;48.898;8.308;2022-12-20T00:18:05;100767.09;;;2.07;100.00
15634;BME280;14654;48.898;8.308;2022-12-20T00:20:30;100768.84;;;2.09;100.00
15634;BME280;14654;48.898;8.308;2022-12-20T00:22:56;100763.81;;;2.11;100.00
15634;BME280;14654;48.898;8.308;2022-12-20T00:25:21;100762.84;;;2.07;100.00
15634;BME280;14654;48.898;8.308;2022-12-20T00:27:47;100775.50;;;2.04;100.00
15634;BME280;14654;48.898;8.308;2022-12-20T00:30:14;100774.63;;;2.04;100.00
15634;BME280;14654;48.898;8.308;2022-12-20T00:32:39;100774.63;;;2.04;100.00
15634;BME280;14654;48.898;8.308;2022-12-20T00:35:05;100775.56;;;2.06;100.00
15634;BME280;14654;48.898;8.308;2022-12-20T00:37:31;100781.53;;;2.06;100.00
15634;BME280;14654;48.898;8.308;2022-12-20T00:39:56;100782.34;;;2.05;100.00
15634;BME280;14654;48.898;8.308;2022-12-20T00:42:22;100793.47;;;2.07;100.00
15634;BME280;14654;48.898;8.308;2022-12-20T00:44:47;100785.78;;;2.06;100.00
15634;BME280;14654;48.898;8.308;2022-12-20T00:47:13;100787.41;;;2.04;100.00
15634;BME280;14654;48.898;8.308;2022-12-20T00:49:39;100781.38;;;2.02;100.00
15634;BME280;14654;48.898;8.308;2022-12-20T00:52:04;100784.72;;;2.01;100.00
15634;BME280;14654;48.898;8.308;2022-12-20T00:54:29;100775.44;;;2.03;100.00
15634;BME280;14654;48.898;8.308;2022-12-20T00:56:55;100776.34;;;2.03;100.00
15634;BME280;14654;48.898;8.308;2022-12-20T00:59:20;100768.75;;;2.06;100.00
15634;BME280;14654;48.898;8.308;2022-12-20T01:01:46;100782.56;;;2.11;100.00
15634;BME280;14654;48.898;8.308;2022-12-20T01:04:12;100771.63;;;2.16;100.00
15634;BME280;14654;48.898;8.308;2022-12-20T01:06:37;100764.97;;;2.21;100.00
15634;BME280;14654;48.898;8.308;2022-12-20T01:09:03;100760.84;;;2.24;100.00
15634;BME280;14654;48.898;8.308;2022-12-20T01:11:32;100757.53;;;2.27;100.00
15634;BME280;14654;48.898;8.308;2022-12-20T01:14:00;100761.00;;;2.29;100.00
15634;BME280;14654;48.898;8.308;2022-12-20T01:16:35;100751.59;;;2.28;100.00
15634;BME280;14654;48.898;8.308;2022-12-20T01:19:02;100760.03;;;2.25;100.00
15634;BME280;14654;48.898;8.308;2022-12-20T01:21:28;100757.38;;;2.22;100.00
15634;BME280;14654;48.898;8.308;2022-12-20T01:23:54;100770.84;;;2.18;100.00
15634;BME280;14654;48.898;8.308;2022-12-20T01:26:21;100763.97;;;2.16;100.00
15634;BME280;14654;48.898;8.308;2022-12-20T01:28:51;100758.72;;;2.11;100.00
15634;BME280;14654;48.898;8.308;2022-12-20T01:31:17;100765.38;;;2.07;100.00
15634;BME280;14654;48.898;8.308;2022-12-20T01:33:44;100755.94;;;2.05;100.00
15634;BME280;14654;48.898;8.308;2022-12-20T01:36:15;100756.72;;;2.02;100.00
15634;BME280;14654;48.898;8.308;2022-12-20T01:38:42;100745.47;;;1.97;100.00
15634;BME280;14654;48.898;8.308;2022-12-20T01:41:08;100743.63;;;1.93;100.00
15634;BME280;14654;48.898;8.308;2022-12-20T01:43:54;100752.91;;;1.91;100.00
15634;BME280;14654;48.898;8.308;2022-12-20T01:46:22;100746.75;;;1.84;100.00
15634;BME280;14654;48.898;8.308;2022-12-20T01:48:53;100745.91;;;1.85;100.00
15634;BME280;14654;48.898;8.308;2022-12-20T01:51:20;100735.56;;;1.80;100.00
15634;BME280;14654;48.898;8.308;2022-12-20T01:53:50;100747.41;;;1.78;100.00
15634;BME280;14654;48.898;8.308;2022-12-20T01:56:16;100743.78;;;1.72;100.00
15634;BME280;14654;48.898;8.308;2022-12-20T01:58:42;100740.19;;;1.66;100.00
15634;BME280;14654;48.898;8.308;2022-12-20T02:01:09;100738.41;;;1.64;100.00
15634;BME280;14654;48.898;8.308;2022-12-20T02:03:35;100746.84;;;1.61;100.00
15634;BME280;14654;48.898;8.308;2022-12-20T02:06:13;100747.75;;;1.63;100.00
15634;BME280;14654;48.898;8.308;2022-12-20T02:08:39;100750.31;;;1.63;100.00
15634;BME280;14654;48.898;8.308;2022-12-20T02:16:26;100732.50;;;1.65;100.00
15634;BME280;14654;48.898;8.308;2022-12-20T02:21:44;100733.31;;;1.64;100.00
15634;BME280;14654;48.898;8.308;2022-12-20T02:24:26;100731.72;;;1.67;100.00
15634;BME280;14654;48.898;8.308;2022-12-20T02:30:05;100700.66;;;1.79;100.00
15634;BME280;14654;48.898;8.308;2022-12-20T02:35:13;100691.59;;;1.88;100.00
15634;BME280;14654;48.898;8.308;2022-12-20T02:37:59;100700.25;;;1.93;100.00
15634;BME280;14654;48.898;8.308;2022-12-20T02:40:29;100697.78;;;1.96;100.00
15634;BME280;14654;48.898;8.308;2022-12-20T02:42:59;100691.09;;;2.00;100.00
15634;BME280;14654;48.898;8.308;2022-12-20T02:45:30;100692.78;;;1.99;100.00
15634;BME280;14654;48.898;8.308;2022-12-20T02:47:59;100696.16;;;1.98;100.00
15634;BME280;14654;48.898;8.308;2022-12-20T02:50:30;100693.59;;;1.98;100.00
15634;BME280;14654;48.898;8.308;2022-12-20T02:52:57;100699.53;;;1.97;100.00
15634;BME280;14654;48.898;8.308;2022-12-20T02:55:32;100696.16;;;1.98;100.00
15634;BME280;14654;48.898;8.308;2022-12-20T02:58:07;100700.38;;;1.97;100.00
15634;BME280;14654;48.898;8.308;2022-12-20T03:00:38;100701.16;;;1.95;100.00
15634;BME280;14654;48.898;8.308;2022-12-20T03:03:06;100706.22;;;1.93;100.00
15634;BME280;14654;48.898;8.308;2022-12-20T03:05:48;100703.53;;;1.89;100.00
15634;BME280;14654;48.898;8.308;2022-12-20T03:08:14;100700.88;;;1.86;100.00
15634;BME280;14654;48.898;8.308;2022-12-20T03:10:40;100699.88;;;1.82;100.00
15634;BME280;14654;48.898;8.308;2022-12-20T03:13:05;100702.34;;;1.79;100.00
15634;BME280;14654;48.898;8.308;2022-12-20T03:15:31;100696.38;;;1.78;100.00
15634;BME280;14654;48.898;8.308;2022-12-20T03:17:56;100702.28;;;1.77;100.00
15634;BME280;14654;48.898;8.308;2022-12-20T03:20:21;100698.88;;;1.77;100.00
15634;BME280;14654;48.898;8.308;2022-12-20T03:22:46;100694.59;;;1.76;100.00
15634;BME280;14654;48.898;8.308;2022-12-20T03:25:12;100698.81;;;1.75;100.00
15634;BME280;14654;48.898;8.308;2022-12-20T03:27:37;100685.19;;;1.75;100.00
15634;BME280;14654;48.898;8.308;2022-12-20T03:30:03;100681.00;;;1.77;100.00
15634;BME280;14654;48.898;8.308;2022-12-20T03:32:29;100683.72;;;1.81;100.00
15634;BME280;14654;48.898;8.308;2022-12-20T03:34:54;100688.84;;;1.83;100.00
15634;BME280;14654;48.898;8.308;2022-12-20T03:37:20;100687.22;;;1.85;100.00
15634;BME280;14654;48.898;8.308;2022-12-20T03:39:46;100686.38;;;1.85;100.00
15634;BME280;14654;48.898;8.308;2022-12-20T03:42:11;100675.34;;;1.86;100.00
15634;BME280;14654;48.898;8.308;2022-12-20T03:44:36;100675.47;;;1.89;100.00
15634;BME280;14654;48.898;8.308;2022-12-20T03:47:02;100670.50;;;1.93;100.00
15634;BME280;14654;48.898;8.308;2022-12-20T03:49:27;100670.63;;;1.98;100.00
15634;BME280;14654;48.898;8.308;2022-12-20T03:51:52;100673.34;;;2.03;100.00
15634;BME280;14654;48.898;8.308;2022-12-20T03:54:18;100670.88;;;2.06;100.00
15634;BME280;14654;48.898;8.308;2022-12-20T03:56:43;100665.06;;;2.10;100.00
15634;BME280;14654;48.898;8.308;2022-12-20T03:59:09;100661.72;;;2.12;100.00
15634;BME280;14654;48.898;8.308;2022-12-20T04:01:34;100666.94;;;2.16;100.00
15634;BME280;14654;48.898;8.308;2022-12-20T04:04:01;100662.69;;;2.16;100.00
15634;BME280;14654;48.898;8.308;2022-12-20T04:06:27;100655.84;;;2.15;100.00
15634;BME280;14654;48.898;8.308;2022-12-20T04:08:52;100662.69;;;2.16;100.00
15634;BME280;14654;48.898;8.308;2022-12-20T04:11:17;100665.09;;;2.11;100.00
15634;BME280;14654;48.898;8.308;2022-12-20T04:13:45;100662.53;;;2.11;100.00
15634;BME280;14654;48.898;8.308;2022-12-20T04:16:13;100660.03;;;2.13;100.00
15634;BME280;14654;48.898;8.308;2022-12-20T04:18:39;100658.41;;;2.15;100.00
15634;BME280;14654;48.898;8.308;2022-12-20T04:21:05;100643.88;;;2.14;100.00
15634;BME280;14654;48.898;8.308;2022-12-20T04:23:32;100633.78;;;2.17;100.00
15634;BME280;14654;48.898;8.308;2022-12-20T04:25:58;100636.44;;;2.20;100.00
15634;BME280;14654;48.898;8.308;2022-12-20T04:28:23;100630.53;;;2.23;100.00
15634;BME280;14654;48.898;8.308;2022-12-20T04:30:48;100638.31;;;2.26;100.00
15634;BME280;14654;48.898;8.308;2022-12-20T04:33:14;100640.06;;;2.28;100.00
15634;BME280;14654;48.898;8.308;2022-12-20T04:35:39;100635.06;;;2.32;100.00
15634;BME280;14654;48.898;8.308;2022-12-20T04:38:04;100626.66;;;2.34;100.00
15634;BME280;14654;48.898;8.308;2022-12-20T04:40:30;100628.34;;;2.35;100.00
15634;BME280;14654;48.898;8.308;2022-12-20T04:42:55;100622.53;;;2.39;100.00
15634;BME280;14654;48.898;8.308;2022-12-20T04:45:20;100616.56;;;2.39;100.00
15634;BME280;14654;48.898;8.308;2022-12-20T04:47:46;100625.91;;;2.38;100.00
15634;BME280;14654;48.898;8.308;2022-12-20T04:50:11;100620.69;;;2.35;100.00
15634;BME280;14654;48.898;8.308;2022-12-20T04:52:37;100619.81;;;2.33;100.00
15634;BME280;14654;48.898;8.308;2022-12-20T04:55:21;100620.56;;;2.31;100.00
15634;BME280;14654;48.898;8.308;2022-12-20T04:57:46;100620.53;;;2.29;100.00
15634;BME280;14654;48.898;8.308;2022-12-20T05:00:12;100618.69;;;2.25;100.00
15634;BME280;14654;48.898;8.308;2022-12-20T05:02:39;100614.28;;;2.19;100.00
15634;BME280;14654;48.898;8.308;2022-12-20T05:05:05;100629.47;;;2.15;100.00
15634;BME280;14654;48.898;8.308;2022-12-20T05:07:30;100637.81;;;2.10;100.00
15634;BME280;14654;48.898;8.308;2022-12-20T05:09:56;100625.84;;;2.08;100.00
15634;BME280;14654;48.898;8.308;2022-12-20T05:12:21;100619.91;;;2.09;100.00
15634;BME280;14654;48.898;8.308;2022-12-20T05:14:46;100626.75;;;2.10;100.00
15634;BME280;14654;48.898;8.308;2022-12-20T05:17:12;100617.38;;;2.09;100.00
15634;BME280;14654;48.898;8.308;2022-12-20T05:19:37;100617.38;;;2.09;100.00
15634;BME280;14654;48.898;8.308;2022-12-20T05:22:02;100611.47;;;2.11;100.00
15634;BME280;14654;48.898;8.308;2022-12-20T05:24:46;100608.22;;;2.16;100.00
15634;BME280;14654;48.898;8.308;2022-12-20T05:27:30;100604.91;;;2.20;100.00
15634;BME280;14654;48.898;8.308;2022-12-20T05:29:55;100611.84;;;2.24;100.00
15634;BME280;14654;48.898;8.308;2022-12-20T05:32:21;100617.06;;;2.27;100.00
15634;BME280;14654;48.898;8.308;2022-12-20T05:34:46;100621.38;;;2.29;100.00
15634;BME280;14654;48.898;8.308;2022-12-20T05:37:11;100613.72;;;2.29;100.00
15634;BME280;14654;48.898;8.308;2022-12-20T05:39:37;100625.72;;;2.32;100.00
15634;BME280;14654;48.898;8.308;2022-12-20T05:42:02;100628.31;;;2.34;100.00
15634;BME280;14654;48.898;8.308;2022-12-20T05:44:27;100630.09;;;2.36;100.00
15634;BME280;14654;48.898;8.308;2022-12-20T05:46:53;100617.38;;;2.38;100.00
15634;BME280;14654;48.898;8.308;2022-12-20T05:49:18;100619.94;;;2.38;100.00
15634;BME280;14654;48.898;8.308;2022-12-20T05:51:49;100619.16;;;2.40;100.00
15634;BME280;14654;48.898;8.308;2022-12-20T05:54:23;100622.63;;;2.42;100.00
15634;BME280;14654;48.898;8.308;2022-12-20T05:56:49;100629.56;;;2.47;100.00
15634;BME280;14654;48.898;8.308;2022-12-20T05:59:14;100626.25;;;2.51;100.00
15634;BME280;14654;48.898;8.308;2022-12-20T06:01:42;100621.25;;;2.54;100.00
15634;BME280;14654;48.898;8.308;2022-12-20T06:04:07;100620.50;;;2.56;100.00
15634;BME280;14654;48.898;8.308;2022-12-20T06:06:32;100629.94;;;2.61;100.00
15634;BME280;14654;48.898;8.308;2022-12-20T06:08:57;100628.38;;;2.64;100.00
15634;BME280;14654;48.898;8.308;2022-12-20T06:11:23;100623.28;;;2.66;100.00
15634;BME280;14654;48.898;8.308;2022-12-20T06:13:48;100611.47;;;2.69;100.00
15634;BME280;14654;48.898;8.308;2022-12-20T06:16:13;100605.59;;;2.72;100.00
15634;BME280;14654;48.898;8.308;2022-12-20T06:18:39;100605.63;;;2.73;100.00
15634;BME280;14654;48.898;8.308;2022-12-20T06:21:04;100604.84;;;2.76;100.00
15634;BME280;14654;48.898;8.308;2022-12-20T06:23:30;100609.13;;;2.77;100.00
15634;BME280;14654;48.898;8.308;2022-12-20T06:25:55;100598.97;;;2.79;100.00
15634;BME280;14654;48.898;8.308;2022-12-20T06:28:22;100601.53;;;2.79;100.00
15634;BME280;14654;48.898;8.308;2022-12-20T06:30:54;100598.97;;;2.79;100.00
15634;BME280;14654;48.898;8.308;2022-12-20T06:33:20;100604.84;;;2.76;100.00
15634;BME280;14654;48.898;8.308;2022-12-20T06:35:45;100598.88;;;2.76;100.00
15634;BME280;14654;48.898;8.308;2022-12-20T06:38:11;100597.13;;;2.74;100.00
15634;BME280;14654;48.898;8.308;2022-12-20T06:40:36;100596.25;;;2.74;100.00
15634;BME280;14654;48.898;8.308;2022-12-20T06:43:02;100607.34;;;2.74;100.00
15634;BME280;14654;48.898;8.308;2022-12-20T06:45:27;100593.69;;;2.74;100.00
15634;BME280;14654;48.898;8.308;2022-12-20T06:47:52;100587.75;;;2.75;100.00
15634;BME280;14654;48.898;8.308;2022-12-20T06:50:18;100591.28;;;2.79;100.00
15634;BME280;14654;48.898;8.308;2022-12-20T06:52:43;100591.34;;;2.82;100.00
15634;BME280;14654;48.898;8.308;2022-12-20T06:55:09;100597.44;;;2.85;100.00
15634;BME280;14654;48.898;8.308;2022-12-20T06:57:34;100589.81;;;2.87;100.00
15634;BME280;14654;48.898;8.308;2022-12-20T06:59:59;100577.94;;;2.89;100.00
15634;BME280;14654;48.898;8.308;2022-12-20T07:02:25;100576.28;;;2.91;100.00
15634;BME280;14654;48.898;8.308;2022-12-20T07:04:50;100572.13;;;2.95;100.00
15634;BME280;14654;48.898;8.308;2022-12-20T07:07:15;100567.09;;;2.98;100.00
15634;BME280;14654;48.898;8.308;2022-12-20T07:09:41;100564.56;;;2.99;100.00
15634;BME280;14654;48.898;8.308;2022-12-20T07:12:07;100567.19;;;3.01;100.00
15634;BME280;14654;48.898;8.308;2022-12-20T07:14:33;100556.97;;;3.02;100.00
15634;BME280;14654;48.898;8.308;2022-12-20T07:16:58;100572.28;;;3.01;100.00
15634;BME280;14654;48.898;8.308;2022-12-20T07:19:24;100567.19;;;3.01;100.00
15634;BME280;14654;48.898;8.308;2022-12-20T07:21:49;100565.44;;;3.00;100.00
15634;BME280;14654;48.898;8.308;2022-12-20T07:24:14;100568.84;;;3.00;100.00
15634;BME280;14654;48.898;8.308;2022-12-20T07:26:40;100567.13;;;2.99;100.00
15634;BME280;14654;48.898;8.308;2022-12-20T07:29:05;100569.72;;;3.01;100.00
15634;BME280;14654;48.898;8.308;2022-12-20T07:31:31;100568.94;;;3.03;100.00
15634;BME280;14654;48.898;8.308;2022-12-20T07:33:56;100565.59;;;3.06;100.00
15634;BME280;14654;48.898;8.308;2022-12-20T07:36:21;100557.09;;;3.07;100.00
15634;BME280;14654;48.898;8.308;2022-12-20T07:38:47;100562.28;;;3.10;100.00
15634;BME280;14654;48.898;8.308;2022-12-20T07:41:15;100553.78;;;3.11;100.00
15634;BME280;14654;48.898;8.308;2022-12-20T07:43:41;100559.00;;;3.14;100.00
15634;BME280;14654;48.898;8.308;2022-12-20T07:46:08;100555.66;;;3.18;100.00
15634;BME280;14654;48.898;8.308;2022-12-20T07:48:36;100556.66;;;3.24;100.00
15634;BME280;14654;48.898;8.308;2022-12-20T07:51:05;100550.81;;;3.29;100.00
15634;BME280;14654;48.898;8.308;2022-12-20T07:53:33;100540.78;;;3.37;100.00
15634;BME280;14654;48.898;8.308;2022-12-20T07:56:03;100530.72;;;3.43;100.00
15634;BME280;14654;48.898;8.308;2022-12-20T07:58:30;100541.06;;;3.49;100.00
15634;BME280;14654;48.898;8.308;2022-12-20T08:00:58;100539.50;;;3.55;100.00
15634;BME280;14654;48.898;8.308;2022-12-20T08:03:27;100544.78;;;3.61;100.00
15634;BME280;14654;48.898;8.308;2022-12-20T08:05:57;100544.00;;;3.65;100.00
15634;BME280;14654;48.898;8.308;2022-12-20T08:08:24;100549.25;;;3.70;100.00
15634;BME280;14654;48.898;8.308;2022-12-20T08:10:50;100554.41;;;3.71;100.00
15634;BME280;14654;48.898;8.308;2022-12-20T08:13:16;100547.63;;;3.73;100.00
15634;BME280;14654;48.898;8.308;2022-12-20T08:15:42;100554.50;;;3.76;100.00
15634;BME280;14654;48.898;8.308;2022-12-20T08:18:07;100548.56;;;3.78;100.00
15634;BME280;14654;48.898;8.308;2022-12-20T08:20:32;100548.66;;;3.81;100.00
15634;BME280;14654;48.898;8.308;2022-12-20T08:22:58;100543.53;;;3.81;100.00
15634;BME280;14654;48.898;8.308;2022-12-20T08:25:23;100547.91;;;3.87;100.00
15634;BME280;14654;48.898;8.308;2022-12-20T08:27:49;100550.63;;;3.93;100.00
15634;BME280;14654;48.898;8.308;2022-12-20T08:30:15;100543.88;;;3.97;100.00
15634;BME280;14654;48.898;8.308;2022-12-20T08:32:40;100532.88;;;4.01;100.00
15634;BME280;14654;48.898;8.308;2022-12-20T08:35:06;100529.50;;;4.04;100.00
15634;BME280;14654;48.898;8.308;2022-12-20T08:37:32;100508.25;;;4.06;100.00
15634;BME280;14654;48.898;8.308;2022-12-20T08:39:57;100511.66;;;4.08;100.00
15634;BME280;14654;48.898;8.308;2022-12-20T08:42:23;100503.22;;;4.11;100.00
15634;BME280;14654;48.898;8.308;2022-12-20T08:44:48;100513.53;;;4.14;100.00
15634;BME280;14654;48.898;8.308;2022-12-20T08:47:13;100512.81;;;4.21;100.00
15634;BME280;14654;48.898;8.308;2022-12-20T08:49:39;100504.44;;;4.29;100.00
15634;BME280;14654;48.898;8.308;2022-12-20T08:52:05;100508.81;;;4.36;100.00
15634;BME280;14654;48.898;8.308;2022-12-20T08:54:30;100500.38;;;4.40;100.00
15634;BME280;14654;48.898;8.308;2022-12-20T08:56:55;100509.75;;;4.39;100.00
15634;BME280;14654;48.898;8.308;2022-12-20T08:59:21;100505.50;;;4.41;100.00
15634;BME280;14654;48.898;8.308;2022-12-20T09:01:46;100487.63;;;4.43;100.00
15634;BME280;14654;48.898;8.308;2022-12-20T09:04:11;100503.06;;;4.46;100.00
15634;BME280;14654;48.898;8.308;2022-12-20T09:06:37;100503.94;;;4.48;100.00
15634;BME280;14654;48.898;8.308;2022-12-20T09:09:03;100502.25;;;4.49;100.00
15634;BME280;14654;48.898;8.308;2022-12-20T09:11:29;100511.59;;;4.47;100.00
15634;BME280;14654;48.898;8.308;2022-12-20T09:13:56;100509.03;;;4.45;100.00
15634;BME280;14654;48.898;8.308;2022-12-20T09:16:25;100515.88;;;4.46;100.00
15634;BME280;14654;48.898;8.308;2022-12-20T09:18:53;100519.28;;;4.45;100.00
15634;BME280;14654;48.898;8.308;2022-12-20T09:21:19;100532.97;;;4.47;100.00
15634;BME280;14654;48.898;8.308;2022-12-20T09:23:46;100533.94;;;4.54;100.00
15634;BME280;14654;48.898;8.308;2022-12-20T09:26:14;100520.44;;;4.61;100.00
15634;BME280;14654;48.898;8.308;2022-12-20T09:28:40;100532.56;;;4.71;100.00
15634;BME280;14654;48.898;8.308;2022-12-20T09:31:09;100524.19;;;4.80;100.00
15634;BME280;14654;48.898;8.308;2022-12-20T09:33:35;100527.72;;;4.85;100.00
15634;BME280;14654;48.898;8.308;2022-12-20T09:36:02;100532.09;;;4.91;100.00
15634;BME280;14654;48.898;8.308;2022-12-20T09:38:28;100516.75;;;4.94;100.00
15634;BME280;14654;48.898;8.308;2022-12-20T09:40:58;100521.94;;;4.97;100.00
15634;BME280;14654;48.898;8.308;2022-12-20T09:43:26;100524.59;;;5.02;100.00
15634;BME280;14654;48.898;8.308;2022-12-20T09:45:53;100522.09;;;5.07;100.00
15634;BME280;14654;48.898;8.308;2022-12-20T09:48:22;100523.00;;;5.10;100.00
15634;BME280;14654;48.898;8.308;2022-12-20T09:51:05;100517.94;;;5.12;100.00
15634;BME280;14654;48.898;8.308;2022-12-20T09:56:26;100515.56;;;5.26;100.00
15634;BME280;14654;48.898;8.308;2022-12-20T10:01:22;100503.88;;;5.45;100.00
15634;BME280;14654;48.898;8.308;2022-12-20T10:03:48;100499.75;;;5.53;100.00
15634;BME280;14654;48.898;8.308;2022-12-20T10:09:03;100495.78;;;5.74;100.00
15634;BME280;14654;48.898;8.308;2022-12-20T10:11:35;100489.88;;;5.81;100.00
15634;BME280;14654;48.898;8.308;2022-12-20T10:25:28;100487.94;;;6.28;100.00
15634;BME280;14654;48.898;8.308;2022-12-20T10:27:55;100494.84;;;6.33;100.00
15634;BME280;14654;48.898;8.308;2022-12-20T10:30:23;100489.78;;;6.39;100.00
15634;BME280;14654;48.898;8.308;2022-12-20T10:32:54;100482.97;;;6.43;100.00
15634;BME280;14654;48.898;8.308;2022-12-20T10:38:10;100467.63;;;6.51;100.00
15634;BME280;14654;48.898;8.308;2022-12-20T10:43:14;100456.63;;;6.66;100.00
15634;BME280;14654;48.898;8.308;2022-12-20T10:45:41;100447.25;;;6.71;100.00
15634;BME280;14654;48.898;8.308;2022-12-20T10:48:29;100440.41;;;6.71;100.00
15634;BME280;14654;48.898;8.308;2022-12-20T10:53:23;100441.16;;;6.61;100.00
15634;BME280;14654;48.898;8.308;2022-12-20T10:55:50;100438.50;;;6.53;100.00
15634;BME280;14654;48.898;8.308;2022-12-20T10:58:34;100441.88;;;6.46;100.00
15634;BME280;14654;48.898;8.308;2022-12-20T11:03:53;100435.78;;;6.36;100.00
15634;BME280;14654;48.898;8.308;2022-12-20T11:06:21;100422.03;;;6.36;100.00
15634;BME280;14654;48.898;8.308;2022-12-20T11:08:48;100415.22;;;6.36;100.00
15634;BME280;14654;48.898;8.308;2022-12-20T11:11:17;100412.69;;;6.41;100.00
15634;BME280;14654;48.898;8.308;2022-12-20T11:13:43;100387.03;;;6.47;100.00
15634;BME280;14654;48.898;8.308;2022-12-20T11:16:28;100376.78;;;6.52;100.00
15634;BME280;14654;48.898;8.308;2022-12-20T11:19:05;100364.84;;;6.60;100.00
15634;BME280;14654;48.898;8.308;2022-12-20T11:21:36;100381.19;;;6.67;100.00
15634;BME280;14654;48.898;8.308;2022-12-20T11:24:10;100382.97;;;6.74;100.00
15634;BME280;14654;48.898;8.308;2022-12-20T11:26:40;100382.16;;;6.80;100.00
15634;BME280;14654;48.898;8.308;2022-12-20T11:35:10;100392.59;;;7.00;100.00
15634;BME280;14654;48.898;8.308;2022-12-20T11:40:32;100389.34;;;7.23;100.00
15634;BME280;14654;48.898;8.308;2022-12-20T11:51:21;100380.91;;;7.50;100.00
15634;BME280;14654;48.898;8.308;2022-12-20T11:53:53;100370.63;;;7.52;100.00
15634;BME280;14654;48.898;8.308;2022-12-20T11:56:27;100376.59;;;7.47;100.00
15634;BME280;14654;48.898;8.308;2022-12-20T11:59:00;100353.38;;;7.41;100.00
15634;BME280;14654;48.898;8.308;2022-12-20T12:01:31;100364.50;;;7.36;100.00
15634;BME280;14654;48.898;8.308;2022-12-20T12:04:09;100364.53;;;7.32;100.00
15634;BME280;14654;48.898;8.308;2022-12-20T12:06:44;100361.94;;;7.34;100.00
15634;BME280;14654;48.898;8.308;2022-12-20T12:11:46;100355.09;;;7.42;100.00
15634;BME280;14654;48.898;8.308;2022-12-20T12:14:29;100360.31;;;7.50;100.00
15634;BME280;14654;48.898;8.308;2022-12-20T12:17:06;100348.31;;;7.57;100.00
15634;BME280;14654;48.898;8.308;2022-12-20T12:19:34;100343.19;;;7.60;100.00
15634;BME280;14654;48.898;8.308;2022-12-20T12:22:05;100338.03;;;7.58;100.00
15634;BME280;14654;48.898;8.308;2022-12-20T12:24:39;100332.84;;;7.57;100.00
15634;BME280;14654;48.898;8.308;2022-12-20T12:27:14;100314.81;;;7.51;100.00
15634;BME280;14654;48.898;8.308;2022-12-20T12:29:44;100300.22;;;7.45;100.00
15634;BME280;14654;48.898;8.308;2022-12-20T12:32:18;100289.03;;;7.40;100.00
15634;BME280;14654;48.898;8.308;2022-12-20T12:38:14;100294.13;;;7.32;100.00
15634;BME280;14654;48.898;8.308;2022-12-20T12:43:55;100283.00;;;7.36;100.00
15634;BME280;14654;48.898;8.308;2022-12-20T12:46:28;100289.88;;;7.37;100.00
15634;BME280;14654;48.898;8.308;2022-12-20T12:48:57;100294.16;;;7.40;100.00
15634;BME280;14654;48.898;8.308;2022-12-20T12:51:36;100291.59;;;7.38;100.00
15634;BME280;14654;48.898;8.308;2022-12-20T12:57:00;100289.03;;;7.40;100.00
15634;BME280;14654;48.898;8.308;2022-12-20T13:04:29;100279.66;;;7.56;100.00
15634;BME280;14654;48.898;8.308;2022-12-20T13:07:00;100269.34;;;7.62;100.00
15634;BME280;14654;48.898;8.308;2022-12-20T13:11:56;100258.22;;;7.75;100.00
15634;BME280;14654;48.898;8.308;2022-12-20T13:16:50;100245.31;;;7.68;100.00
15634;BME280;14654;48.898;8.308;2022-12-20T13:27:20;100227.22;;;7.37;100.00
15634;BME280;14654;48.898;8.308;2022-12-20T13:37:59;100238.22;;;6.98;100.00
15634;BME280;14654;48.898;8.308;2022-12-20T13:40:53;100248.47;;;6.92;100.00
15634;BME280;14654;48.898;8.308;2022-12-20T13:43:23;100239.00;;;6.86;100.00
15634;BME280;14654;48.898;8.308;2022-12-20T13:48:58;100233.84;;;6.82;100.00
15634;BME280;14654;48.898;8.308;2022-12-20T13:51:28;100239.00;;;6.86;100.00
15634;BME280;14654;48.898;8.308;2022-12-20T13:53:56;100235.63;;;6.95;100.00
15634;BME280;14654;48.898;8.308;2022-12-20T13:56:37;100212.53;;;7.08;100.00
15634;BME280;14654;48.898;8.308;2022-12-20T13:59:13;100218.56;;;7.19;100.00
15634;BME280;14654;48.898;8.308;2022-12-20T14:01:48;100218.59;;;7.30;100.00
15634;BME280;14654;48.898;8.308;2022-12-20T14:04:13;100222.09;;;7.38;100.00
15634;BME280;14654;48.898;8.308;2022-12-20T14:06:39;100222.97;;;7.46;100.00
15634;BME280;14654;48.898;8.308;2022-12-20T14:09:30;100214.38;;;7.49;100.00
15634;BME280;14654;48.898;8.308;2022-12-20T14:12:02;100217.81;;;7.50;100.00
15634;BME280;14654;48.898;8.308;2022-12-20T14:14:27;100218.69;;;7.48;100.00
15634;BME280;14654;48.898;8.308;2022-12-20T14:16:52;100212.66;;;7.46;100.00
15634;BME280;14654;48.898;8.308;2022-12-20T14:19:18;100209.19;;;7.41;100.00
15634;BME280;14654;48.898;8.308;2022-12-20T14:21:44;100213.50;;;7.36;100.00
15634;BME280;14654;48.898;8.308;2022-12-20T14:24:18;100204.03;;;7.26;100.00
15634;BME280;14654;48.898;8.308;2022-12-20T14:26:46;100207.44;;;7.19;100.00
15634;BME280;14654;48.898;8.308;2022-12-20T14:29:28;100215.13;;;7.15;100.00
15634;BME280;14654;48.898;8.308;2022-12-20T14:31:54;100211.69;;;7.12;100.00
15634;BME280;14654;48.898;8.308;2022-12-20T14:34:24;100207.38;;;7.06;100.00
15634;BME280;14654;48.898;8.308;2022-12-20T14:36:50;100205.66;;;7.00;100.00